Time;durP1;ratioP1;P1;durP2;ratioP2;P2;SDS_P1;SDS_P2;PMS_P1;PMS_P2;Temp;Humidity;BMP_temperature;BMP_pressure;BME280_temperature;BME280_humidity;BME280_pressure;Samples;Min_cycle;Max_cycle;Signal;HPM_P1;HPM_P2
2022/09/24 00:01:15;;;;;;;;;7.50;7.00;;;;;16.76;57.21;101034.56;5080311;27;45418;-90
2022/09/24 00:03:44;;;;;;;;;8.25;7.25;;;;;16.77;56.87;101033.63;5098269;27;45394;-91
2022/09/24 00:06:11;;;;;;;;;9.33;6.33;;;;;16.79;57.23;101029.13;5080195;27;45516;-90
2022/09/24 00:08:36;;;;;;;;;13.50;9.50;;;;;16.79;56.57;101032.63;5079806;27;45439;-90
2022/09/24 00:11:04;;;;;;;;;8.00;7.50;;;;;16.80;56.28;101022.97;5080169;27;45391;-90
2022/09/24 00:13:30;;;;;;;;;9.50;7.00;;;;;16.83;56.44;101022.84;5080005;27;45515;-90
2022/09/24 00:15:56;;;;;;;;;8.00;6.25;;;;;16.85;56.81;101025.41;5062627;27;46703;-90
2022/09/24 00:18:21;;;;;;;;;7.00;7.00;;;;;16.85;56.52;101025.41;5097898;27;45379;-90
2022/09/24 00:20:47;;;;;;;;;8.75;7.00;;;;;16.88;56.97;101022.59;5062958;27;45341;-90
2022/09/24 00:23:13;;;;;;;;;7.75;6.00;;;;;16.91;56.14;101018.03;5079535;27;45414;-90
2022/09/24 00:28:30;;;;;;;;;6.25;6.00;;;;;16.98;56.93;101013.34;5077518;27;45325;-90
2022/09/24 00:30:58;;;;;;;;;10.25;8.00;;;;;17.00;56.69;101000.94;5039273;28;45515;-90
2022/09/24 00:33:27;;;;;;;;;10.75;5.75;;;;;17.04;56.37;101015.63;5076532;27;45384;-90
2022/09/24 00:35:57;;;;;;;;;10.00;7.75;;;;;17.02;55.87;101009.63;5062538;27;47053;-90
2022/09/24 00:38:23;;;;;;;;;9.50;6.00;;;;;17.00;55.87;101019.38;5078851;27;45520;-89
2022/09/24 00:40:49;;;;;;;;;9.25;9.00;;;;;16.95;56.46;101019.59;5079321;27;45463;-90
2022/09/24 00:43:33;;;;;;;;;11.00;7.75;;;;;16.91;55.59;101018.03;5079750;27;45331;-90
2022/09/24 00:46:36;;;;;;;;;9.50;7.00;;;;;16.89;56.10;101016.44;5097291;27;46378;-90
2022/09/24 00:49:06;;;;;;;;;7.00;6.00;;;;;16.90;56.38;101018.13;5079611;27;45809;-90
2022/09/24 00:51:32;;;;;;;;;9.25;7.25;;;;;16.86;56.58;101020.06;5062417;27;45361;-90
2022/09/24 00:54:00;;;;;;;;;6.50;6.00;;;;;16.87;57.08;101015.66;5079714;27;45467;-90
2022/09/24 00:56:27;;;;;;;;;8.25;8.25;;;;;16.85;57.22;101013.09;5079479;27;48129;-90
2022/09/24 00:58:55;;;;;;;;;10.00;7.00;;;;;16.81;58.04;101012.38;5079214;27;45864;-90
2022/09/24 01:01:22;;;;;;;;;9.25;6.75;;;;;16.81;58.36;101009.75;5079446;27;45368;-90
2022/09/24 01:03:49;;;;;;;;;10.75;9.25;;;;;16.82;57.14;101010.59;5079495;27;45309;-90
2022/09/24 01:06:15;;;;;;;;;12.25;7.75;;;;;16.81;58.51;101006.28;5061780;27;47725;-90
2022/09/24 01:08:42;;;;;;;;;11.25;8.50;;;;;16.81;59.15;101015.00;5079115;27;45384;-90
2022/09/24 01:11:26;;;;;;;;;11.75;8.25;;;;;16.81;59.12;101006.28;5062454;27;45350;-91
2022/09/24 01:14:15;;;;;;;;;9.00;7.25;;;;;16.82;58.99;101006.22;5079122;27;45617;-90
2022/09/24 01:16:59;;;;;;;;;8.50;7.25;;;;;16.81;58.75;101009.75;5096912;27;46529;-91
2022/09/24 01:19:40;;;;;;;;;9.50;7.00;;;;;16.76;59.26;101009.13;5079104;27;45440;-90
2022/09/24 01:22:16;;;;;;;;;9.00;7.75;;;;;16.68;59.74;101007.81;5079047;27;45321;-91
2022/09/24 01:24:44;;;;;;;;;7.00;7.00;;;;;16.62;60.17;101008.97;5079273;27;45399;-91
2022/09/24 01:27:19;;;;;;;;;14.00;11.75;;;;;16.55;60.22;101002.34;5098304;27;45587;-90
2022/09/24 01:29:54;;;;;;;;;10.00;8.50;;;;;16.47;60.43;101001.84;5049580;28;45869;-91
2022/09/24 01:32:48;;;;;;;;;16.25;10.50;;;;;16.41;60.83;100995.97;5060578;27;45321;-90
2022/09/24 01:35:36;;;;;;;;;12.50;7.25;;;;;16.38;60.79;101001.38;5082793;27;45265;-90
2022/09/24 01:38:06;;;;;;;;;10.75;9.25;;;;;16.36;61.29;100999.75;5100495;27;45535;-90
2022/09/24 01:40:32;;;;;;;;;10.50;8.25;;;;;16.39;61.34;100996.97;5082368;27;45971;-90
2022/09/24 01:42:58;;;;;;;;;9.75;7.00;;;;;16.40;61.17;100991.66;5082255;27;45344;-89
2022/09/24 01:45:28;;;;;;;;;8.50;8.00;;;;;16.42;61.28;100992.41;5082648;27;45459;-89
2022/09/24 01:47:54;;;;;;;;;11.00;9.00;;;;;16.42;61.09;100986.31;5082622;27;46572;-90
2022/09/24 01:50:23;;;;;;;;;11.00;7.75;;;;;16.43;62.12;100980.97;5081900;27;45393;-89
2022/09/24 01:52:59;;;;;;;;;13.75;10.00;;;;;16.47;61.61;100972.94;5081448;27;57210;-89
2022/09/24 01:55:26;;;;;;;;;11.00;9.75;;;;;16.49;61.92;100971.94;5064921;27;45337;-89
2022/09/24 01:57:56;;;;;;;;;14.75;9.75;;;;;16.47;62.75;100960.66;5081743;27;46153;-89
2022/09/24 02:00:22;;;;;;;;;12.25;8.50;;;;;16.48;61.78;100961.53;5081625;27;45664;-88
2022/09/24 02:03:07;;;;;;;;;13.75;9.00;;;;;16.47;62.19;100962.44;5081650;27;45323;-89
2022/09/24 02:05:57;;;;;;;;;9.50;8.25;;;;;16.49;62.54;100952.69;5081359;27;45360;-88
2022/09/24 02:08:27;;;;;;;;;14.00;10.00;;;;;16.47;62.00;100950.13;5081401;27;46305;-89
2022/09/24 02:11:13;;;;;;;;;12.00;7.75;;;;;16.50;62.55;100952.63;5064325;27;46039;-89
2022/09/24 02:13:45;;;;;;;;;13.00;10.75;;;;;16.45;62.83;100952.00;5082099;27;45378;-89
2022/09/24 02:16:13;;;;;;;;;11.50;8.75;;;;;16.41;62.12;100960.97;5081459;27;45484;-89
2022/09/24 02:18:42;;;;;;;;;10.25;7.25;;;;;16.42;62.27;100960.06;5098016;27;47979;-89
2022/09/24 02:21:11;;;;;;;;;13.25;8.00;;;;;16.43;63.00;100954.69;5081502;27;45779;-89
2022/09/24 02:23:40;;;;;;;;;13.50;9.25;;;;;16.44;62.32;100947.69;5081644;27;45633;-88
2022/09/24 02:26:06;;;;;;;;;13.25;10.50;;;;;16.44;63.14;100950.31;5081423;27;45468;-89
2022/09/24 02:28:32;;;;;;;;;14.25;12.00;;;;;16.37;62.96;100952.38;5075763;27;45604;-89
2022/09/24 02:31:21;;;;;;;;;12.00;10.00;;;;;16.31;62.88;100939.56;5057606;28;45298;-89
2022/09/24 02:36:33;;;;;;;;;13.75;11.50;;;;;16.33;63.60;100945.59;5084856;27;45356;-89
2022/09/24 02:38:59;;;;;;;;;12.50;10.00;;;;;16.32;63.54;100945.66;5098138;27;46519;-90
2022/09/24 02:41:25;;;;;;;;;18.25;11.50;;;;;16.29;63.30;100940.53;5081162;27;45797;-89
2022/09/24 02:43:50;;;;;;;;;13.75;11.00;;;;;16.30;63.97;100942.25;5099704;27;45457;-90
2022/09/24 02:46:16;;;;;;;;;11.25;10.00;;;;;16.30;63.55;100937.00;5099762;27;45575;-89
2022/09/24 02:48:41;;;;;;;;;15.00;12.00;;;;;16.25;63.64;100939.84;5097669;27;47580;-90
2022/09/24 02:51:07;;;;;;;;;18.75;11.00;;;;;16.20;64.23;100937.47;5080807;27;64628;-90
2022/09/24 02:53:33;;;;;;;;;11.50;11.00;;;;;16.20;63.41;100936.63;5081461;27;45377;-90
2022/09/24 02:56:01;;;;;;;;;16.00;12.00;;;;;16.20;63.60;100936.63;5099443;27;45355;-89
2022/09/24 02:58:28;;;;;;;;;11.50;10.25;;;;;16.21;63.58;100935.69;5097894;27;48230;-90
2022/09/24 03:00:53;;;;;;;;;14.50;10.00;;;;;16.24;63.74;100928.50;5098984;27;45821;-89
2022/09/24 03:03:20;;;;;;;;;14.25;12.50;;;;;16.28;64.05;100929.19;5098976;27;45298;-90
2022/09/24 03:05:45;;;;;;;;;11.25;10.75;;;;;16.31;63.64;100929.06;5064260;27;45367;-89
2022/09/24 03:08:11;;;;;;;;;13.25;11.00;;;;;16.32;64.06;100928.13;5080882;27;46846;-89
2022/09/24 03:10:36;;;;;;;;;18.25;10.50;;;;;16.33;63.82;100926.34;5098937;27;45428;-90
2022/09/24 03:13:02;;;;;;;;;12.25;11.00;;;;;16.31;64.06;100926.44;5081058;27;45381;-89
2022/09/24 03:15:28;;;;;;;;;12.50;11.25;;;;;16.26;63.86;100923.16;5098386;27;53908;-89
2022/09/24 03:17:54;;;;;;;;;13.50;13.50;;;;;16.19;64.23;100922.63;5080456;27;46925;-91
2022/09/24 03:20:19;;;;;;;;;12.25;11.00;;;;;16.10;64.61;100923.06;5080784;27;45309;-90
2022/09/24 03:22:50;;;;;;;;;12.50;11.25;;;;;16.00;64.69;100919.22;5080877;27;45312;-89
2022/09/24 03:25:15;;;;;;;;;11.25;9.00;;;;;15.95;64.18;100918.56;5098601;27;45252;-89
2022/09/24 03:27:40;;;;;;;;;14.25;9.75;;;;;15.92;64.68;100916.97;5063086;27;57481;-89
2022/09/24 03:32:50;;;;;;;;;12.25;12.25;;;;;15.96;65.12;100915.03;5077912;28;45392;-89
2022/09/24 03:35:16;;;;;;;;;11.50;10.50;;;;;15.97;65.33;100914.09;5077247;28;45510;-89
2022/09/24 03:37:42;;;;;;;;;10.25;10.00;;;;;15.94;65.34;100911.63;5077089;28;46316;-90
2022/09/24 03:40:08;;;;;;;;;11.00;9.75;;;;;15.91;65.47;100903.91;5078205;27;45425;-89
2022/09/24 03:42:33;;;;;;;;;13.75;11.75;;;;;15.90;65.15;100903.06;5077151;28;45621;-89
2022/09/24 03:44:59;;;;;;;;;12.50;11.25;;;;;15.90;64.94;100907.44;5060198;28;45578;-89
2022/09/24 03:47:24;;;;;;;;;13.75;10.50;;;;;15.92;65.26;100897.75;5076530;28;45346;-89
2022/09/24 03:49:49;;;;;;;;;10.50;6.00;;;;;15.93;65.20;100902.06;5076323;28;45325;-89
2022/09/24 03:52:16;;;;;;;;;13.50;11.00;;;;;15.92;64.97;100901.22;5076457;28;55201;-89
2022/09/24 03:54:41;;;;;;;;;13.00;10.25;;;;;15.94;65.51;100901.97;5076938;28;45431;-90
2022/09/24 03:57:07;;;;;;;;;11.00;10.50;;;;;15.94;64.98;100903.75;5076076;28;61490;-90
2022/09/24 03:59:32;;;;;;;;;11.25;10.75;;;;;15.89;65.34;100898.72;5077904;28;45568;-89
2022/09/24 04:01:57;;;;;;;;;14.00;9.50;;;;;15.87;65.42;100903.19;5076568;28;45464;-90
2022/09/24 04:04:23;;;;;;;;;12.50;11.25;;;;;15.83;65.19;100905.13;5076649;28;45345;-90
2022/09/24 04:06:48;;;;;;;;;12.00;10.00;;;;;15.82;65.05;100899.94;5077509;28;47913;-90
2022/09/24 04:09:14;;;;;;;;;9.75;9.25;;;;;15.86;65.68;100888.34;5076787;28;45370;-90
2022/09/24 04:11:39;;;;;;;;;14.25;9.25;;;;;15.86;65.44;100890.97;5059846;28;45426;-90
2022/09/24 04:14:04;;;;;;;;;11.75;8.00;;;;;15.82;65.56;100889.44;5076929;28;45518;-90
2022/09/24 04:16:30;;;;;;;;;9.00;7.25;;;;;15.80;65.46;100892.13;5075502;28;57391;-90
2022/09/24 04:18:55;;;;;;;;;18.75;12.25;;;;;15.80;65.59;100893.91;5076412;28;45579;-90
2022/09/24 04:21:20;;;;;;;;;12.50;11.00;;;;;15.80;65.20;100893.91;5076808;28;45494;-90
2022/09/24 04:23:46;;;;;;;;;9.75;9.75;;;;;15.81;65.53;100893.84;5076581;28;46245;-90
2022/09/24 04:26:12;;;;;;;;;10.00;9.50;;;;;15.85;65.31;100889.31;5076233;28;46146;-90
2022/09/24 04:28:37;;;;;;;;;12.50;10.25;;;;;15.85;65.60;100891.94;5075757;28;45327;-89
2022/09/24 04:31:03;;;;;;;;;12.50;11.00;;;;;15.82;65.96;100892.94;5041621;28;56519;-89
2022/09/24 04:33:28;;;;;;;;;11.50;10.00;;;;;15.79;65.90;100892.22;5066408;28;45451;-90
2022/09/24 04:35:54;;;;;;;;;15.00;11.25;;;;;15.77;66.01;100896.72;5076300;28;46332;-90
2022/09/24 04:38:20;;;;;;;;;13.00;10.75;;;;;15.77;66.15;100900.19;5077480;28;45364;-90
2022/09/24 04:40:46;;;;;;;;;11.25;9.25;;;;;15.73;65.65;100892.47;5077576;27;45320;-90
2022/09/24 04:43:11;;;;;;;;;12.25;11.00;;;;;15.72;66.04;100894.25;5076363;27;45317;-90
2022/09/24 04:45:37;;;;;;;;;10.25;5.00;;;;;15.72;65.95;100896.88;5077102;27;47657;-90
2022/09/24 04:48:02;;;;;;;;;11.00;10.00;;;;;15.69;66.18;100894.38;5075913;28;45201;-90
2022/09/24 04:50:32;;;;;;;;;12.50;12.00;;;;;15.65;65.60;100893.69;5077266;27;45342;-90
2022/09/24 04:52:57;;;;;;;;;14.25;11.00;;;;;15.67;65.61;100901.50;5076292;28;45603;-90
2022/09/24 04:55:23;;;;;;;;;14.25;10.75;;;;;15.72;66.17;100898.66;5077348;27;45510;-91
2022/09/24 04:57:49;;;;;;;;;11.00;10.25;;;;;15.73;66.01;100902.97;5076173;28;45341;-90
2022/09/24 05:00:17;;;;;;;;;12.50;11.25;;;;;15.70;66.24;100898.72;5092860;27;45355;-90
2022/09/24 05:02:43;;;;;;;;;12.50;10.50;;;;;15.67;66.46;100904.13;5076426;27;45417;-90
2022/09/24 05:05:10;;;;;;;;;11.50;9.25;;;;;15.66;66.62;100900.66;5076883;27;46175;-90
2022/09/24 05:07:35;;;;;;;;;12.00;9.00;;;;;15.62;66.58;100904.34;5076893;27;45733;-91
2022/09/24 05:10:00;;;;;;;;;14.50;11.25;;;;;15.60;66.26;100897.44;5075821;28;45301;-90
2022/09/24 05:12:26;;;;;;;;;12.00;9.00;;;;;15.61;66.56;100905.25;5076664;28;45454;-90
2022/09/24 05:14:51;;;;;;;;;14.25;10.00;;;;;15.61;66.14;100902.63;5075704;28;46112;-90
2022/09/24 05:17:17;;;;;;;;;9.25;8.75;;;;;15.57;66.34;100905.50;5058872;28;45321;-90
2022/09/24 05:19:43;;;;;;;;;11.00;10.00;;;;;15.60;66.55;100907.94;5075892;28;45301;-90
2022/09/24 05:22:08;;;;;;;;;9.00;8.75;;;;;15.62;65.93;100911.34;5075833;28;45484;-90
2022/09/24 05:24:33;;;;;;;;;13.00;11.50;;;;;15.65;66.09;100905.97;5075736;28;47740;-91
2022/09/24 05:27:08;;;;;;;;;11.25;9.50;;;;;15.70;66.34;100911.00;5074702;28;63738;-90
2022/09/24 05:29:41;;;;;;;;;11.25;10.00;;;;;15.70;66.56;100911.84;5068668;28;45357;-90
2022/09/24 05:32:08;;;;;;;;;10.00;8.00;;;;;15.68;65.85;100916.31;5076765;28;45381;-90
2022/09/24 05:34:34;;;;;;;;;7.75;7.50;;;;;15.74;66.56;100920.47;5074666;28;46089;-91
2022/09/24 05:37:00;;;;;;;;;10.00;7.25;;;;;15.78;66.08;100919.38;5075673;28;45280;-91
2022/09/24 05:39:26;;;;;;;;;9.25;6.00;;;;;15.78;66.11;100925.47;5092997;27;45297;-91
2022/09/24 05:41:51;;;;;;;;;13.25;7.50;;;;;15.80;66.54;100920.16;5075396;28;45492;-90
2022/09/24 05:44:19;;;;;;;;;11.50;10.00;;;;;15.84;66.15;100914.72;5077042;28;63751;-91
2022/09/24 05:46:45;;;;;;;;;12.00;10.00;;;;;15.92;65.92;100922.22;5075558;28;45380;-91
2022/09/24 05:49:10;;;;;;;;;9.50;9.00;;;;;15.97;65.91;100919.34;5075636;28;45492;-91
2022/09/24 05:51:36;;;;;;;;;12.75;9.75;;;;;16.02;65.69;100917.34;5076677;27;45464;-91
2022/09/24 05:54:02;;;;;;;;;10.00;9.75;;;;;16.07;66.04;100920.63;5058369;28;48138;-92
2022/09/24 05:56:27;;;;;;;;;14.25;10.50;;;;;16.09;65.51;100921.38;5076353;27;45493;-91
2022/09/24 05:58:53;;;;;;;;;13.75;11.25;;;;;16.11;65.96;100924.78;5076610;28;45413;-91
2022/09/24 06:01:19;;;;;;;;;10.00;9.50;;;;;16.10;65.47;100922.22;5075528;28;45360;-91
2022/09/24 06:03:44;;;;;;;;;11.75;8.25;;;;;16.10;65.82;100930.09;5058262;28;47944;-91
2022/09/24 06:06:10;;;;;;;;;15.50;12.00;;;;;16.03;65.95;100932.19;5075301;28;45382;-91
2022/09/24 06:08:35;;;;;;;;;13.75;10.50;;;;;16.00;66.22;100937.59;5076462;27;45323;-91
2022/09/24 06:11:04;;;;;;;;;17.75;13.25;;;;;15.94;66.17;100933.47;5075045;28;45423;-91
2022/09/24 06:13:30;;;;;;;;;12.00;9.25;;;;;15.91;66.14;100935.41;5077947;27;46109;-91
2022/09/24 06:16:00;;;;;;;;;18.25;10.00;;;;;15.90;67.07;100944.19;5079772;27;45472;-92
2022/09/24 06:18:25;;;;;;;;;12.50;11.00;;;;;15.88;66.25;100944.28;5062300;28;45321;-91
2022/09/24 06:20:51;;;;;;;;;13.00;9.50;;;;;15.86;66.68;100944.34;5079776;28;45458;-91
2022/09/24 06:23:16;;;;;;;;;10.50;10.00;;;;;15.83;66.73;100948.91;5061716;28;47134;-91
2022/09/24 06:25:43;;;;;;;;;10.00;9.00;;;;;15.77;67.03;100950.03;5076967;28;53826;-87
2022/09/24 06:28:08;;;;;;;;;16.25;11.75;;;;;15.74;67.24;100944.09;5078790;27;45418;-85
2022/09/24 06:30:40;;;;;;;;;10.50;9.50;;;;;15.75;66.95;100945.75;5060597;28;49440;-85
2022/09/24 06:33:07;;;;;;;;;18.25;13.25;;;;;15.73;66.86;100948.47;5078176;28;46707;-85
2022/09/24 06:35:37;;;;;;;;;19.75;10.00;;;;;15.75;66.96;100951.00;5077341;28;45427;-85
2022/09/24 06:38:07;;;;;;;;;15.75;10.50;;;;;15.79;67.52;100952.59;5077199;28;45462;-85
2022/09/24 06:40:32;;;;;;;;;13.75;12.00;;;;;15.81;67.19;100951.59;5077046;28;45491;-84
2022/09/24 06:42:58;;;;;;;;;18.75;11.75;;;;;15.88;67.29;100952.16;5078222;27;45556;-85
2022/09/24 06:45:25;;;;;;;;;13.75;11.00;;;;;15.92;66.93;100955.50;5078234;28;45313;-86
2022/09/24 06:47:57;;;;;;;;;17.25;12.25;;;;;15.92;67.20;100956.34;5078658;27;45572;-88
2022/09/24 06:50:27;;;;;;;;;14.00;11.50;;;;;15.97;67.53;100959.59;5077365;28;45395;-84
2022/09/24 06:52:54;;;;;;;;;13.00;11.75;;;;;15.97;66.91;100956.09;5078223;27;46585;-85
2022/09/24 06:55:19;;;;;;;;;11.25;6.00;;;;;16.01;66.98;100958.53;5059623;28;45723;-85
2022/09/24 06:57:45;;;;;;;;;12.75;11.25;;;;;16.04;66.90;100968.84;5078123;27;45507;-85
2022/09/24 07:00:12;;;;;;;;;10.50;10.50;;;;;16.04;66.94;100965.38;5077141;28;45349;-86
2022/09/24 07:02:37;;;;;;;;;16.50;12.00;;;;;16.11;67.08;100969.41;5077976;27;46224;-86
2022/09/24 07:05:03;;;;;;;;;11.00;6.00;;;;;16.17;67.01;100973.53;5078235;27;45351;-84
2022/09/24 07:07:28;;;;;;;;;15.50;11.50;;;;;16.24;66.52;100970.53;5076767;28;45404;-86
2022/09/24 07:09:58;;;;;;;;;16.50;13.00;;;;;16.25;66.82;100969.59;5077223;28;53683;-87
2022/09/24 07:12:23;;;;;;;;;11.75;11.00;;;;;16.25;66.13;100974.88;5076788;28;46238;-84
2022/09/24 07:14:49;;;;;;;;;13.00;11.00;;;;;16.25;66.02;100971.38;5077628;27;45280;-86
2022/09/24 07:17:14;;;;;;;;;13.00;10.75;;;;;16.25;66.14;100976.63;5078109;28;45578;-86
2022/09/24 07:19:40;;;;;;;;;19.25;13.50;;;;;16.29;66.27;100967.69;5077739;27;45254;-86
2022/09/24 07:22:06;;;;;;;;;12.00;10.00;;;;;16.36;66.10;100973.47;5077568;27;46416;-87
2022/09/24 07:24:31;;;;;;;;;14.50;10.00;;;;;16.45;65.78;100970.38;5077383;28;45456;-90
2022/09/24 07:26:57;;;;;;;;;11.00;9.75;;;;;16.47;65.92;100973.78;5076538;28;45506;-86
2022/09/24 07:29:22;;;;;;;;;13.00;10.00;;;;;16.50;65.38;100978.06;5077403;28;45376;-86
2022/09/24 07:31:48;;;;;;;;;11.50;9.75;;;;;16.56;65.37;100981.22;5076173;28;46202;-86
2022/09/24 07:34:13;;;;;;;;;12.25;11.25;;;;;16.61;65.62;100979.22;5077282;28;45463;-86
2022/09/24 07:36:40;;;;;;;;;11.50;9.25;;;;;16.65;65.16;100985.16;5077711;27;45417;-86
2022/09/24 07:39:05;;;;;;;;;7.50;7.00;;;;;16.65;65.01;100987.78;5077208;27;45415;-86
2022/09/24 07:41:31;;;;;;;;;17.00;12.00;;;;;16.66;65.04;100989.50;5077217;28;45347;-85
2022/09/24 07:43:57;;;;;;;;;12.75;10.00;;;;;16.64;64.91;100989.56;5076112;28;45763;-86
2022/09/24 07:46:23;;;;;;;;;12.25;9.00;;;;;16.60;65.20;100993.28;5076252;28;45450;-86
2022/09/24 07:48:51;;;;;;;;;12.00;10.00;;;;;16.60;64.95;100992.41;5076065;28;45355;-86
2022/09/24 07:51:16;;;;;;;;;12.75;10.75;;;;;16.68;64.95;100997.28;5077321;28;45360;-86
2022/09/24 07:53:42;;;;;;;;;12.25;8.75;;;;;16.73;64.40;100997.91;5075647;28;45509;-85
2022/09/24 07:56:07;;;;;;;;;12.00;9.75;;;;;16.78;65.01;100995.91;5075985;28;45261;-85
2022/09/24 07:58:32;;;;;;;;;13.75;7.75;;;;;16.84;64.54;101003.50;5076546;28;64780;-86
2022/09/24 08:01:02;;;;;;;;;13.75;12.00;;;;;16.91;64.45;100998.78;5075800;28;46296;-85
2022/09/24 08:03:27;;;;;;;;;13.75;11.75;;;;;16.94;64.43;100998.66;5077014;27;45488;-85
2022/09/24 08:05:57;;;;;;;;;13.25;9.25;;;;;16.97;64.24;101003.72;5077171;28;45315;-85
2022/09/24 08:08:23;;;;;;;;;11.00;11.00;;;;;16.97;64.06;101001.94;5076802;27;45351;-85
2022/09/24 08:10:48;;;;;;;;;11.75;11.00;;;;;16.98;64.26;101013.34;5075723;28;45433;-85
2022/09/24 08:13:13;;;;;;;;;15.25;12.00;;;;;17.01;63.75;101011.41;5075467;28;45352;-85
2022/09/24 08:15:39;;;;;;;;;15.25;10.75;;;;;17.03;63.52;101001.66;5076858;28;45461;-86
2022/09/24 08:18:05;;;;;;;;;11.75;10.75;;;;;16.99;63.59;101012.38;5075557;28;45371;-85
2022/09/24 08:20:31;;;;;;;;;8.00;8.00;;;;;16.99;63.76;101009.75;5076887;28;45438;-85
2022/09/24 08:23:01;;;;;;;;;10.00;6.75;;;;;16.99;63.39;101004.50;5076480;27;45390;-86
2022/09/24 08:25:26;;;;;;;;;11.50;7.00;;;;;17.01;63.71;101006.13;5076758;27;45472;-86
2022/09/24 08:27:52;;;;;;;;;7.25;6.50;;;;;17.03;63.59;101013.91;5075684;28;45293;-85
2022/09/24 08:30:17;;;;;;;;;7.00;5.75;;;;;16.99;63.13;101013.25;5076140;28;45453;-85
2022/09/24 08:32:47;;;;;;;;;6.75;5.00;;;;;16.97;63.40;101012.47;5076391;28;45315;-85
2022/09/24 08:35:14;;;;;;;;;6.25;6.00;;;;;17.03;63.77;101020.06;5076749;27;45539;-85
2022/09/24 08:37:40;;;;;;;;;6.50;6.50;;;;;17.18;63.62;101028.09;5073857;28;45527;-85
2022/09/24 08:40:06;;;;;;;;;9.25;8.00;;;;;17.20;63.27;101024.44;5075053;28;45417;-84
2022/09/24 08:42:50;;;;;;;;;11.50;8.00;;;;;17.27;63.20;101022.31;5076516;27;45288;-84
2022/09/24 08:48:08;;;;;;;;;6.00;5.25;;;;;17.51;62.34;101021.97;5076621;28;45525;-85
2022/09/24 08:50:35;;;;;;;;;6.00;6.00;;;;;17.55;62.72;101034.03;5076032;27;45690;-85
2022/09/24 08:53:06;;;;;;;;;8.00;7.50;;;;;17.55;63.19;101028.75;5076437;27;45801;-85
2022/09/24 08:55:41;;;;;;;;;7.00;7.00;;;;;17.58;62.16;101031.22;5076642;27;46104;-85
2022/09/24 08:58:09;;;;;;;;;7.25;7.25;;;;;17.64;62.09;101036.16;5074949;28;45411;-85
2022/09/24 09:01:06;;;;;;;;;6.75;6.50;;;;;17.77;61.80;101039.84;5076152;28;46084;-85
2022/09/24 09:03:37;;;;;;;;;12.75;8.00;;;;;17.90;61.17;101039.19;5067445;28;45887;-85
2022/09/24 09:06:14;;;;;;;;;9.50;7.00;;;;;17.92;60.84;101035.56;5075884;27;45356;-86
2022/09/24 09:08:57;;;;;;;;;6.00;5.25;;;;;17.94;61.41;101033.69;5076233;27;45376;-85
2022/09/24 09:11:27;;;;;;;;;7.25;7.00;;;;;18.06;60.46;101028.69;5074797;28;45411;-85
2022/09/24 09:14:05;;;;;;;;;5.75;5.75;;;;;18.23;61.09;101033.84;5075026;28;45810;-85
2022/09/24 09:16:54;;;;;;;;;7.00;7.00;;;;;18.42;60.43;101032.78;5074814;28;45366;-85
2022/09/24 09:19:25;;;;;;;;;17.75;9.50;;;;;18.61;59.90;101037.84;5074426;28;45457;-85
2022/09/24 09:21:56;;;;;;;;;11.50;8.00;;;;;18.67;59.38;101027.81;5074715;28;46595;-87
2022/09/24 09:24:30;;;;;;;;;11.50;10.00;;;;;18.70;59.44;101038.19;5074737;28;45741;-86
2022/09/24 09:26:55;;;;;;;;;13.25;7.50;;;;;18.73;59.05;101027.44;5074825;28;45367;-86
2022/09/24 09:29:23;;;;;;;;;10.25;8.00;;;;;18.75;58.52;101027.34;5075744;27;45443;-86
2022/09/24 09:32:13;;;;;;;;;15.50;8.50;;;;;18.73;58.58;101030.09;5075552;28;46342;-86
2022/09/24 09:34:57;;;;;;;;;12.25;8.50;;;;;18.75;59.54;101040.53;5075313;28;45709;-86
2022/09/24 09:37:27;;;;;;;;;9.00;7.50;;;;;18.67;58.06;101037.53;5075851;27;45208;-85
2022/09/24 09:40:24;;;;;;;;;9.50;8.50;;;;;18.72;59.24;101033.69;5075756;27;45499;-86
2022/09/24 09:42:51;;;;;;;;;41.00;34.25;;;;;18.77;58.68;101044.78;5074245;28;47493;-86
2022/09/24 09:45:38;;;;;;;;;8.00;8.00;;;;;18.80;58.35;101038.50;5074480;28;45415;-85
2022/09/24 09:48:04;;;;;;;;;10.25;8.00;;;;;18.88;57.92;101035.44;5075139;28;45253;-86
2022/09/24 09:50:40;;;;;;;;;15.00;10.00;;;;;18.92;58.36;101040.41;5079493;28;45292;-86
2022/09/24 09:53:20;;;;;;;;;15.25;10.75;;;;;18.83;57.60;101037.50;5077849;28;45445;-86
2022/09/24 09:56:00;;;;;;;;;20.25;14.00;;;;;18.61;57.84;101044.00;5079005;27;45349;-86
2022/09/24 09:58:28;;;;;;;;;11.00;10.25;;;;;18.50;58.75;101039.34;5079385;27;45237;-85
2022/09/24 10:01:07;;;;;;;;;11.25;9.00;;;;;18.52;58.11;101041.91;5079200;27;45332;-86
2022/09/24 10:03:46;;;;;;;;;18.75;16.00;;;;;18.51;59.07;101041.03;5078562;27;46428;-86
2022/09/24 10:06:14;;;;;;;;;11.50;10.75;;;;;18.60;58.75;101038.81;5078914;27;45741;-86
2022/09/24 10:08:39;;;;;;;;;17.00;12.25;;;;;18.67;58.87;101030.44;5077584;28;45365;-86
2022/09/24 10:11:06;;;;;;;;;23.50;20.00;;;;;18.80;58.30;101037.66;5077830;28;45297;-86
2022/09/24 10:13:32;;;;;;;;;18.00;11.75;;;;;18.96;58.22;101035.81;5078619;28;46491;-86
2022/09/24 10:16:02;;;;;;;;;18.00;12.25;;;;;19.10;58.30;101035.84;5077465;28;45778;-86
2022/09/24 10:18:35;;;;;;;;;19.50;14.75;;;;;19.20;58.25;101043.22;5077319;28;45423;-85
2022/09/24 10:21:03;;;;;;;;;16.50;12.50;;;;;19.29;57.60;101042.66;5077626;28;45367;-86
2022/09/24 10:23:35;;;;;;;;;18.50;11.25;;;;;19.45;57.53;101035.50;5077373;28;46243;-86
2022/09/24 10:26:02;;;;;;;;;15.25;11.00;;;;;19.55;57.56;101035.78;5077414;28;45233;-86
2022/09/24 10:31:34;;;;;;;;;20.75;17.75;;;;;19.62;57.01;101029.19;5078521;28;45317;-86
2022/09/24 10:34:00;;;;;;;;;26.75;22.75;;;;;19.74;56.19;101032.88;5054102;28;46683;-85
2022/09/24 10:36:28;;;;;;;;;14.25;12.25;;;;;19.85;55.51;101032.19;5078223;28;45583;-85
2022/09/24 10:39:08;;;;;;;;;19.00;12.00;;;;;19.89;56.08;101036.34;5078101;28;45488;-89
2022/09/24 10:41:34;;;;;;;;;17.00;14.50;;;;;19.88;55.79;101029.38;5056573;28;45914;-86
2022/09/24 10:44:03;;;;;;;;;18.50;18.50;;;;;19.76;55.22;101030.13;5077357;28;46118;-86
2022/09/24 10:46:41;;;;;;;;;19.00;15.25;;;;;19.71;56.14;101033.88;5064730;28;45671;-85
2022/09/24 10:49:53;;;;;;;;;18.75;17.25;;;;;19.69;56.30;101035.78;5063396;28;45530;-87
2022/09/24 10:52:43;;;;;;;;;15.00;12.25;;;;;19.67;55.53;101035.03;5060210;28;45280;-85
2022/09/24 10:55:21;;;;;;;;;19.00;15.75;;;;;19.63;56.12;101030.88;5075978;28;46277;-84
2022/09/24 10:57:49;;;;;;;;;19.25;14.50;;;;;19.72;55.65;101034.72;5077933;28;45485;-84
2022/09/24 11:00:22;;;;;;;;;8.50;6.25;;;;;19.86;56.06;101028.63;5070856;28;45507;-86
2022/09/24 11:03:13;;;;;;;;;20.75;15.75;;;;;20.15;54.80;101032.03;5059010;28;45546;-83
2022/09/24 11:06:01;;;;;;;;;16.75;14.50;;;;;20.38;55.15;101029.69;5069886;28;46315;-84
2022/09/24 11:08:46;;;;;;;;;17.75;16.00;;;;;20.62;53.13;101029.91;5057760;28;45826;-83
2022/09/24 11:11:22;;;;;;;;;25.00;16.50;;;;;20.84;54.43;101031.97;5056635;28;45586;-84
2022/09/24 11:14:09;;;;;;;;;16.50;13.75;;;;;21.26;53.60;101033.44;5058429;28;45531;-84
2022/09/24 11:16:47;;;;;;;;;12.50;12.50;;;;;21.73;52.98;101027.59;5075867;28;45648;-84
2022/09/24 11:19:31;;;;;;;;;14.00;13.50;;;;;22.28;51.53;101026.28;5075227;28;45392;-84
2022/09/24 11:22:36;;;;;;;;;19.50;17.00;;;;;23.72;48.79;101026.84;5062709;28;45321;-85
2022/09/24 11:25:12;;;;;;;;;16.75;14.50;;;;;25.58;46.27;101029.97;5056875;28;45502;-85
2022/09/24 11:27:58;;;;;;;;;19.25;17.00;;;;;26.96;41.45;101034.47;5058693;28;46341;-86
2022/09/24 11:30:28;;;;;;;;;17.00;12.75;;;;;28.34;41.01;101029.19;5073860;28;47427;-84
2022/09/24 11:32:56;;;;;;;;;14.75;12.25;;;;;28.92;39.73;101027.00;5064645;27;45320;-85
2022/09/24 11:35:30;;;;;;;;;14.00;14.00;;;;;28.92;37.43;101035.03;5080334;27;45233;-85
2022/09/24 11:38:07;;;;;;;;;16.75;14.00;;;;;29.32;36.80;101031.75;5058646;28;46278;-84
2022/09/24 11:40:39;;;;;;;;;16.50;13.00;;;;;30.09;35.91;101029.03;5077235;28;45573;-84